sensor_id;sensor_type;location;lat;lon;timestamp;pressure;altitude;pressure_sealevel;temperature
60966;BMP180;46834;51.100;6.886;2022-08-07T00:01:35;102158.00;;;23.50
60966;BMP180;46834;51.100;6.886;2022-08-07T00:04:01;102152.00;;;23.50
60966;BMP180;46834;51.100;6.886;2022-08-07T00:06:27;102150.00;;;23.40
60966;BMP180;46834;51.100;6.886;2022-08-07T00:08:53;102155.00;;;23.40
60966;BMP180;46834;51.100;6.886;2022-08-07T00:11:18;102147.00;;;23.40
60966;BMP180;46834;51.100;6.886;2022-08-07T00:13:44;102146.00;;;23.30
60966;BMP180;46834;51.100;6.886;2022-08-07T00:16:13;102144.00;;;23.30
60966;BMP180;46834;51.100;6.886;2022-08-07T00:18:39;102138.00;;;23.30
60966;BMP180;46834;51.100;6.886;2022-08-07T00:21:08;102134.00;;;23.20
60966;BMP180;46834;51.100;6.886;2022-08-07T00:23:36;102128.00;;;23.20
60966;BMP180;46834;51.100;6.886;2022-08-07T00:26:05;102125.00;;;23.20
60966;BMP180;46834;51.100;6.886;2022-08-07T00:28:33;102114.00;;;23.10
60966;BMP180;46834;51.100;6.886;2022-08-07T00:31:02;102126.00;;;23.10
60966;BMP180;46834;51.100;6.886;2022-08-07T00:33:28;102117.00;;;23.10
60966;BMP180;46834;51.100;6.886;2022-08-07T00:35:54;102118.00;;;23.00
60966;BMP180;46834;51.100;6.886;2022-08-07T00:38:21;102121.00;;;23.00
60966;BMP180;46834;51.100;6.886;2022-08-07T00:40:47;102126.00;;;23.00
60966;BMP180;46834;51.100;6.886;2022-08-07T00:43:13;102118.00;;;23.00
60966;BMP180;46834;51.100;6.886;2022-08-07T00:45:40;102118.00;;;22.90
60966;BMP180;46834;51.100;6.886;2022-08-07T00:48:07;102120.00;;;22.90
60966;BMP180;46834;51.100;6.886;2022-08-07T00:50:34;102120.00;;;22.90
60966;BMP180;46834;51.100;6.886;2022-08-07T00:52:59;102116.00;;;22.90
60966;BMP180;46834;51.100;6.886;2022-08-07T00:55:25;102112.00;;;22.80
60966;BMP180;46834;51.100;6.886;2022-08-07T00:57:51;102118.00;;;22.80
60966;BMP180;46834;51.100;6.886;2022-08-07T01:00:18;102112.00;;;22.80
60966;BMP180;46834;51.100;6.886;2022-08-07T01:02:45;102113.00;;;22.80
60966;BMP180;46834;51.100;6.886;2022-08-07T01:05:12;102102.00;;;22.80
60966;BMP180;46834;51.100;6.886;2022-08-07T01:07:39;102089.00;;;22.70
60966;BMP180;46834;51.100;6.886;2022-08-07T01:10:07;102097.00;;;22.70
60966;BMP180;46834;51.100;6.886;2022-08-07T01:12:37;102094.00;;;22.70
60966;BMP180;46834;51.100;6.886;2022-08-07T01:15:05;102089.00;;;22.70
60966;BMP180;46834;51.100;6.886;2022-08-07T01:17:32;102080.00;;;22.60
60966;BMP180;46834;51.100;6.886;2022-08-07T01:20:21;102096.00;;;22.50
60966;BMP180;46834;51.100;6.886;2022-08-07T01:22:50;102089.00;;;22.60
60966;BMP180;46834;51.100;6.886;2022-08-07T01:25:18;102095.00;;;22.60
60966;BMP180;46834;51.100;6.886;2022-08-07T01:27:44;102084.00;;;22.60
60966;BMP180;46834;51.100;6.886;2022-08-07T01:30:10;102092.00;;;22.60
60966;BMP180;46834;51.100;6.886;2022-08-07T01:32:36;102095.00;;;22.50
60966;BMP180;46834;51.100;6.886;2022-08-07T01:35:02;102093.00;;;22.50
60966;BMP180;46834;51.100;6.886;2022-08-07T01:37:28;102092.00;;;22.50
60966;BMP180;46834;51.100;6.886;2022-08-07T01:39:54;102081.00;;;22.50
60966;BMP180;46834;51.100;6.886;2022-08-07T01:42:24;102087.00;;;22.50
60966;BMP180;46834;51.100;6.886;2022-08-07T01:44:50;102084.00;;;22.40
60966;BMP180;46834;51.100;6.886;2022-08-07T01:47:16;102073.00;;;22.40
60966;BMP180;46834;51.100;6.886;2022-08-07T01:49:42;102075.00;;;22.40
60966;BMP180;46834;51.100;6.886;2022-08-07T01:52:09;102080.00;;;22.40
60966;BMP180;46834;51.100;6.886;2022-08-07T01:54:39;102086.00;;;22.30
60966;BMP180;46834;51.100;6.886;2022-08-07T01:57:18;102092.00;;;22.30
60966;BMP180;46834;51.100;6.886;2022-08-07T02:02:26;102086.00;;;22.20
60966;BMP180;46834;51.100;6.886;2022-08-07T02:05:03;102077.00;;;22.20
60966;BMP180;46834;51.100;6.886;2022-08-07T02:07:36;102081.00;;;22.20
60966;BMP180;46834;51.100;6.886;2022-08-07T02:10:05;102087.00;;;22.20
60966;BMP180;46834;51.100;6.886;2022-08-07T02:12:37;102092.00;;;22.20
60966;BMP180;46834;51.100;6.886;2022-08-07T02:15:06;102089.00;;;22.20
60966;BMP180;46834;51.100;6.886;2022-08-07T02:17:32;102091.00;;;22.20
60966;BMP180;46834;51.100;6.886;2022-08-07T02:20:02;102087.00;;;22.10
60966;BMP180;46834;51.100;6.886;2022-08-07T02:22:29;102082.00;;;22.10
60966;BMP180;46834;51.100;6.886;2022-08-07T02:24:57;102083.00;;;22.10
60966;BMP180;46834;51.100;6.886;2022-08-07T02:27:25;102076.00;;;22.10
60966;BMP180;46834;51.100;6.886;2022-08-07T02:29:54;102084.00;;;22.00
60966;BMP180;46834;51.100;6.886;2022-08-07T02:32:22;102070.00;;;22.00
60966;BMP180;46834;51.100;6.886;2022-08-07T02:34:49;102072.00;;;22.00
60966;BMP180;46834;51.100;6.886;2022-08-07T02:37:16;102072.00;;;22.00
60966;BMP180;46834;51.100;6.886;2022-08-07T02:39:46;102081.00;;;21.90
60966;BMP180;46834;51.100;6.886;2022-08-07T02:42:13;102062.00;;;21.90
60966;BMP180;46834;51.100;6.886;2022-08-07T02:44:42;102066.00;;;21.90
60966;BMP180;46834;51.100;6.886;2022-08-07T02:47:11;102066.00;;;21.80
60966;BMP180;46834;51.100;6.886;2022-08-07T02:49:38;102060.00;;;21.80
60966;BMP180;46834;51.100;6.886;2022-08-07T02:52:08;102068.00;;;21.70
60966;BMP180;46834;51.100;6.886;2022-08-07T02:54:40;102071.00;;;21.70
60966;BMP180;46834;51.100;6.886;2022-08-07T02:57:11;102066.00;;;21.70
60966;BMP180;46834;51.100;6.886;2022-08-07T02:59:40;102067.00;;;21.70
60966;BMP180;46834;51.100;6.886;2022-08-07T03:02:12;102076.00;;;21.60
60966;BMP180;46834;51.100;6.886;2022-08-07T03:04:42;102071.00;;;21.60
60966;BMP180;46834;51.100;6.886;2022-08-07T03:07:09;102068.00;;;21.60
60966;BMP180;46834;51.100;6.886;2022-08-07T03:09:36;102058.00;;;21.60
60966;BMP180;46834;51.100;6.886;2022-08-07T03:12:04;102051.00;;;21.60
60966;BMP180;46834;51.100;6.886;2022-08-07T03:14:32;102062.00;;;21.60
60966;BMP180;46834;51.100;6.886;2022-08-07T03:17:02;102059.00;;;21.50
60966;BMP180;46834;51.100;6.886;2022-08-07T03:19:29;102058.00;;;21.50
60966;BMP180;46834;51.100;6.886;2022-08-07T03:21:55;102057.00;;;21.50
60966;BMP180;46834;51.100;6.886;2022-08-07T03:24:21;102056.00;;;21.50
60966;BMP180;46834;51.100;6.886;2022-08-07T03:26:48;102058.00;;;21.50
60966;BMP180;46834;51.100;6.886;2022-08-07T03:29:17;102064.00;;;21.50
60966;BMP180;46834;51.100;6.886;2022-08-07T03:31:44;102060.00;;;21.50
60966;BMP180;46834;51.100;6.886;2022-08-07T03:34:14;102068.00;;;21.40
60966;BMP180;46834;51.100;6.886;2022-08-07T03:36:41;102063.00;;;21.40
60966;BMP180;46834;51.100;6.886;2022-08-07T03:39:11;102058.00;;;21.40
60966;BMP180;46834;51.100;6.886;2022-08-07T03:41:39;102064.00;;;21.40
60966;BMP180;46834;51.100;6.886;2022-08-07T03:44:05;102055.00;;;21.40
60966;BMP180;46834;51.100;6.886;2022-08-07T03:46:32;102072.00;;;21.40
60966;BMP180;46834;51.100;6.886;2022-08-07T03:48:59;102057.00;;;21.30
60966;BMP180;46834;51.100;6.886;2022-08-07T03:51:26;102064.00;;;21.30
60966;BMP180;46834;51.100;6.886;2022-08-07T03:53:52;102058.00;;;21.20
60966;BMP180;46834;51.100;6.886;2022-08-07T03:56:20;102057.00;;;21.20
60966;BMP180;46834;51.100;6.886;2022-08-07T03:58:49;102063.00;;;21.10
60966;BMP180;46834;51.100;6.886;2022-08-07T04:01:17;102065.00;;;21.10
60966;BMP180;46834;51.100;6.886;2022-08-07T04:03:43;102065.00;;;21.10
60966;BMP180;46834;51.100;6.886;2022-08-07T04:06:11;102064.00;;;21.00
60966;BMP180;46834;51.100;6.886;2022-08-07T04:08:39;102067.00;;;21.00
60966;BMP180;46834;51.100;6.886;2022-08-07T04:11:07;102071.00;;;21.00
60966;BMP180;46834;51.100;6.886;2022-08-07T04:13:35;102073.00;;;21.00
60966;BMP180;46834;51.100;6.886;2022-08-07T04:16:01;102071.00;;;21.00
60966;BMP180;46834;51.100;6.886;2022-08-07T04:18:27;102075.00;;;21.00
60966;BMP180;46834;51.100;6.886;2022-08-07T04:20:53;102061.00;;;20.90
60966;BMP180;46834;51.100;6.886;2022-08-07T04:23:19;102070.00;;;20.90
60966;BMP180;46834;51.100;6.886;2022-08-07T04:25:47;102069.00;;;20.90
60966;BMP180;46834;51.100;6.886;2022-08-07T04:28:13;102068.00;;;20.90
60966;BMP180;46834;51.100;6.886;2022-08-07T04:30:39;102077.00;;;20.80
60966;BMP180;46834;51.100;6.886;2022-08-07T04:33:08;102071.00;;;20.80
60966;BMP180;46834;51.100;6.886;2022-08-07T04:35:36;102080.00;;;20.70
60966;BMP180;46834;51.100;6.886;2022-08-07T04:38:08;102080.00;;;20.70
60966;BMP180;46834;51.100;6.886;2022-08-07T04:40:40;102079.00;;;20.60
60966;BMP180;46834;51.100;6.886;2022-08-07T04:43:07;102084.00;;;20.60
60966;BMP180;46834;51.100;6.886;2022-08-07T04:46:06;102088.00;;;20.50
60966;BMP180;46834;51.100;6.886;2022-08-07T04:54:27;102085.00;;;20.50
60966;BMP180;46834;51.100;6.886;2022-08-07T04:57:26;102083.00;;;20.50
60966;BMP180;46834;51.100;6.886;2022-08-07T05:00:08;102082.00;;;20.50
60966;BMP180;46834;51.100;6.886;2022-08-07T05:02:50;102073.00;;;20.50
60966;BMP180;46834;51.100;6.886;2022-08-07T05:05:39;102071.00;;;20.50
60966;BMP180;46834;51.100;6.886;2022-08-07T05:08:22;102088.00;;;20.50
60966;BMP180;46834;51.100;6.886;2022-08-07T05:11:41;102081.00;;;20.50
60966;BMP180;46834;51.100;6.886;2022-08-07T05:14:18;102084.00;;;20.50
60966;BMP180;46834;51.100;6.886;2022-08-07T05:16:45;102081.00;;;20.60
60966;BMP180;46834;51.100;6.886;2022-08-07T05:19:21;102093.00;;;20.50
60966;BMP180;46834;51.100;6.886;2022-08-07T05:21:53;102096.00;;;20.60
60966;BMP180;46834;51.100;6.886;2022-08-07T05:24:22;102092.00;;;20.60
60966;BMP180;46834;51.100;6.886;2022-08-07T05:26:54;102085.00;;;20.60
60966;BMP180;46834;51.100;6.886;2022-08-07T05:29:22;102090.00;;;20.60
60966;BMP180;46834;51.100;6.886;2022-08-07T05:31:51;102099.00;;;20.60
60966;BMP180;46834;51.100;6.886;2022-08-07T05:34:18;102100.00;;;20.60
60966;BMP180;46834;51.100;6.886;2022-08-07T05:36:50;102107.00;;;20.60
60966;BMP180;46834;51.100;6.886;2022-08-07T05:39:19;102098.00;;;20.60
60966;BMP180;46834;51.100;6.886;2022-08-07T05:41:46;102107.00;;;20.70
60966;BMP180;46834;51.100;6.886;2022-08-07T05:44:17;102106.00;;;20.70
60966;BMP180;46834;51.100;6.886;2022-08-07T05:46:45;102110.00;;;20.70
60966;BMP180;46834;51.100;6.886;2022-08-07T05:49:12;102112.00;;;20.70
60966;BMP180;46834;51.100;6.886;2022-08-07T05:51:38;102114.00;;;20.80
60966;BMP180;46834;51.100;6.886;2022-08-07T05:54:04;102118.00;;;20.80
60966;BMP180;46834;51.100;6.886;2022-08-07T05:56:33;102113.00;;;20.80
60966;BMP180;46834;51.100;6.886;2022-08-07T05:59:02;102107.00;;;20.80
60966;BMP180;46834;51.100;6.886;2022-08-07T06:01:31;102101.00;;;20.90
60966;BMP180;46834;51.100;6.886;2022-08-07T06:03:59;102112.00;;;20.90
60966;BMP180;46834;51.100;6.886;2022-08-07T06:06:26;102109.00;;;21.00
60966;BMP180;46834;51.100;6.886;2022-08-07T06:08:53;102120.00;;;21.00
60966;BMP180;46834;51.100;6.886;2022-08-07T06:11:19;102121.00;;;21.00
60966;BMP180;46834;51.100;6.886;2022-08-07T06:13:45;102119.00;;;21.10
60966;BMP180;46834;51.100;6.886;2022-08-07T06:16:14;102130.00;;;21.10
60966;BMP180;46834;51.100;6.886;2022-08-07T06:18:40;102120.00;;;21.20
60966;BMP180;46834;51.100;6.886;2022-08-07T06:21:07;102128.00;;;21.20
60966;BMP180;46834;51.100;6.886;2022-08-07T06:23:33;102132.00;;;21.30
60966;BMP180;46834;51.100;6.886;2022-08-07T06:25:59;102133.00;;;21.30
60966;BMP180;46834;51.100;6.886;2022-08-07T06:28:26;102127.00;;;21.40
60966;BMP180;46834;51.100;6.886;2022-08-07T06:30:51;102133.00;;;21.40
60966;BMP180;46834;51.100;6.886;2022-08-07T06:33:18;102133.00;;;21.40
60966;BMP180;46834;51.100;6.886;2022-08-07T06:35:45;102133.00;;;21.40
60966;BMP180;46834;51.100;6.886;2022-08-07T06:38:11;102129.00;;;21.50
60966;BMP180;46834;51.100;6.886;2022-08-07T06:40:45;102122.00;;;21.50
60966;BMP180;46834;51.100;6.886;2022-08-07T06:43:13;102132.00;;;21.70
60966;BMP180;46834;51.100;6.886;2022-08-07T06:45:40;102120.00;;;21.90
60966;BMP180;46834;51.100;6.886;2022-08-07T06:48:06;102121.00;;;22.30
60966;BMP180;46834;51.100;6.886;2022-08-07T06:50:35;102122.00;;;22.70
60966;BMP180;46834;51.100;6.886;2022-08-07T06:53:03;102127.00;;;23.20
60966;BMP180;46834;51.100;6.886;2022-08-07T06:55:32;102131.00;;;23.80
60966;BMP180;46834;51.100;6.886;2022-08-07T06:58:03;102134.00;;;24.50
60966;BMP180;46834;51.100;6.886;2022-08-07T07:00:33;102155.00;;;25.10
60966;BMP180;46834;51.100;6.886;2022-08-07T07:03:02;102144.00;;;25.70
60966;BMP180;46834;51.100;6.886;2022-08-07T07:05:28;102149.00;;;26.30
60966;BMP180;46834;51.100;6.886;2022-08-07T07:07:54;102142.00;;;26.90
60966;BMP180;46834;51.100;6.886;2022-08-07T07:10:33;102148.00;;;27.50
60966;BMP180;46834;51.100;6.886;2022-08-07T07:15:45;102154.00;;;28.70
60966;BMP180;46834;51.100;6.886;2022-08-07T07:18:24;102158.00;;;29.30
60966;BMP180;46834;51.100;6.886;2022-08-07T07:20:59;102168.00;;;29.90
60966;BMP180;46834;51.100;6.886;2022-08-07T07:23:26;102158.00;;;30.40
60966;BMP180;46834;51.100;6.886;2022-08-07T07:25:59;102168.00;;;30.90
60966;BMP180;46834;51.100;6.886;2022-08-07T07:28:36;102160.00;;;31.50
60966;BMP180;46834;51.100;6.886;2022-08-07T07:31:14;102165.00;;;31.90
60966;BMP180;46834;51.100;6.886;2022-08-07T07:33:45;102176.00;;;32.40
60966;BMP180;46834;51.100;6.886;2022-08-07T07:36:12;102160.00;;;32.80
60966;BMP180;46834;51.100;6.886;2022-08-07T07:38:40;102174.00;;;33.10
60966;BMP180;46834;51.100;6.886;2022-08-07T07:41:09;102180.00;;;33.40
60966;BMP180;46834;51.100;6.886;2022-08-07T07:43:40;102179.00;;;33.70
60966;BMP180;46834;51.100;6.886;2022-08-07T07:46:09;102171.00;;;33.90
60966;BMP180;46834;51.100;6.886;2022-08-07T07:48:37;102172.00;;;34.10
60966;BMP180;46834;51.100;6.886;2022-08-07T07:51:05;102170.00;;;34.10
60966;BMP180;46834;51.100;6.886;2022-08-07T07:53:33;102165.00;;;34.00
60966;BMP180;46834;51.100;6.886;2022-08-07T07:56:02;102169.00;;;33.70
60966;BMP180;46834;51.100;6.886;2022-08-07T07:58:33;102174.00;;;33.40
60966;BMP180;46834;51.100;6.886;2022-08-07T08:01:00;102163.00;;;33.10
60966;BMP180;46834;51.100;6.886;2022-08-07T08:03:29;102166.00;;;32.70
60966;BMP180;46834;51.100;6.886;2022-08-07T08:05:55;102150.00;;;32.40
60966;BMP180;46834;51.100;6.886;2022-08-07T08:08:29;102149.00;;;32.00
60966;BMP180;46834;51.100;6.886;2022-08-07T08:10:58;102150.00;;;31.70
60966;BMP180;46834;51.100;6.886;2022-08-07T08:13:28;102149.00;;;31.30
60966;BMP180;46834;51.100;6.886;2022-08-07T08:15:57;102149.00;;;31.00
60966;BMP180;46834;51.100;6.886;2022-08-07T08:18:27;102141.00;;;30.70
60966;BMP180;46834;51.100;6.886;2022-08-07T08:21:00;102140.00;;;30.40
60966;BMP180;46834;51.100;6.886;2022-08-07T08:23:29;102136.00;;;30.10
60966;BMP180;46834;51.100;6.886;2022-08-07T08:26:16;102127.00;;;29.90
60966;BMP180;46834;51.100;6.886;2022-08-07T08:29:02;102131.00;;;29.60
60966;BMP180;46834;51.100;6.886;2022-08-07T08:31:33;102113.00;;;29.40
60966;BMP180;46834;51.100;6.886;2022-08-07T08:34:03;102121.00;;;29.20
60966;BMP180;46834;51.100;6.886;2022-08-07T08:36:33;102121.00;;;29.00
60966;BMP180;46834;51.100;6.886;2022-08-07T08:39:03;102125.00;;;28.90
60966;BMP180;46834;51.100;6.886;2022-08-07T08:42:03;102125.00;;;28.60
60966;BMP180;46834;51.100;6.886;2022-08-07T08:48:16;102114.00;;;28.30
60966;BMP180;46834;51.100;6.886;2022-08-07T08:51:04;102116.00;;;28.20
60966;BMP180;46834;51.100;6.886;2022-08-07T08:53:51;102110.00;;;28.10
60966;BMP180;46834;51.100;6.886;2022-08-07T08:56:32;102102.00;;;28.00
60966;BMP180;46834;51.100;6.886;2022-08-07T08:59:24;102102.00;;;27.90
60966;BMP180;46834;51.100;6.886;2022-08-07T09:02:16;102095.00;;;27.90
60966;BMP180;46834;51.100;6.886;2022-08-07T09:05:08;102088.00;;;27.80
60966;BMP180;46834;51.100;6.886;2022-08-07T09:07:44;102079.00;;;27.80
60966;BMP180;46834;51.100;6.886;2022-08-07T09:10:30;102089.00;;;27.70
60966;BMP180;46834;51.100;6.886;2022-08-07T09:13:24;102092.00;;;27.60
60966;BMP180;46834;51.100;6.886;2022-08-07T09:25:06;102085.00;;;27.40
60966;BMP180;46834;51.100;6.886;2022-08-07T09:30:18;102079.00;;;27.40
60966;BMP180;46834;51.100;6.886;2022-08-07T09:33:15;102078.00;;;27.30
60966;BMP180;46834;51.100;6.886;2022-08-07T09:35:57;102067.00;;;27.30
60966;BMP180;46834;51.100;6.886;2022-08-07T09:38:50;102065.00;;;27.30
60966;BMP180;46834;51.100;6.886;2022-08-07T09:41:45;102072.00;;;27.30
60966;BMP180;46834;51.100;6.886;2022-08-07T09:44:55;102067.00;;;27.20
60966;BMP180;46834;51.100;6.886;2022-08-07T09:51:47;102057.00;;;27.20
60966;BMP180;46834;51.100;6.886;2022-08-07T09:54:34;102064.00;;;27.20
60966;BMP180;46834;51.100;6.886;2022-08-07T09:57:43;102059.00;;;27.20
60966;BMP180;46834;51.100;6.886;2022-08-07T10:00:26;102054.00;;;27.20
60966;BMP180;46834;51.100;6.886;2022-08-07T10:06:41;102039.00;;;27.20
60966;BMP180;46834;51.100;6.886;2022-08-07T10:18:05;102030.00;;;27.20
60966;BMP180;46834;51.100;6.886;2022-08-07T10:39:08;102021.00;;;27.30
60966;BMP180;46834;51.100;6.886;2022-08-07T10:41:43;102021.00;;;27.40
60966;BMP180;46834;51.100;6.886;2022-08-07T10:44:36;102022.00;;;27.30
60966;BMP180;46834;51.100;6.886;2022-08-07T10:47:32;102008.00;;;27.40
60966;BMP180;46834;51.100;6.886;2022-08-07T10:50:13;102001.00;;;27.40
60966;BMP180;46834;51.100;6.886;2022-08-07T10:53:10;101997.00;;;27.40
60966;BMP180;46834;51.100;6.886;2022-08-07T10:56:02;102004.00;;;27.40
60966;BMP180;46834;51.100;6.886;2022-08-07T11:02:01;101999.00;;;27.40
60966;BMP180;46834;51.100;6.886;2022-08-07T11:08:48;101983.00;;;27.50
60966;BMP180;46834;51.100;6.886;2022-08-07T11:11:31;101977.00;;;27.50
60966;BMP180;46834;51.100;6.886;2022-08-07T11:14:19;101988.00;;;27.60
60966;BMP180;46834;51.100;6.886;2022-08-07T11:16:55;101973.00;;;27.60
60966;BMP180;46834;51.100;6.886;2022-08-07T11:19:44;101968.00;;;27.60
60966;BMP180;46834;51.100;6.886;2022-08-07T11:22:40;101969.00;;;27.70
60966;BMP180;46834;51.100;6.886;2022-08-07T11:25:34;101963.00;;;27.70
60966;BMP180;46834;51.100;6.886;2022-08-07T11:28:20;101969.00;;;27.70
60966;BMP180;46834;51.100;6.886;2022-08-07T11:30:58;101964.00;;;27.80
60966;BMP180;46834;51.100;6.886;2022-08-07T11:34:16;101950.00;;;27.80
60966;BMP180;46834;51.100;6.886;2022-08-07T11:37:20;101955.00;;;27.80
60966;BMP180;46834;51.100;6.886;2022-08-07T11:43:12;101942.00;;;27.90
60966;BMP180;46834;51.100;6.886;2022-08-07T11:46:13;101961.00;;;27.90
60966;BMP180;46834;51.100;6.886;2022-08-07T11:49:24;101945.00;;;27.90
60966;BMP180;46834;51.100;6.886;2022-08-07T11:58:04;101935.00;;;27.90
60966;BMP180;46834;51.100;6.886;2022-08-07T12:03:52;101939.00;;;28.00
60966;BMP180;46834;51.100;6.886;2022-08-07T12:06:38;101933.00;;;28.00
60966;BMP180;46834;51.100;6.886;2022-08-07T12:09:23;101936.00;;;28.00
60966;BMP180;46834;51.100;6.886;2022-08-07T12:12:12;101946.00;;;28.00
60966;BMP180;46834;51.100;6.886;2022-08-07T12:14:54;101946.00;;;28.10
60966;BMP180;46834;51.100;6.886;2022-08-07T12:17:23;101938.00;;;28.10
60966;BMP180;46834;51.100;6.886;2022-08-07T12:19:58;101941.00;;;28.10
60966;BMP180;46834;51.100;6.886;2022-08-07T12:22:46;101929.00;;;28.10
60966;BMP180;46834;51.100;6.886;2022-08-07T12:25:21;101932.00;;;28.20
60966;BMP180;46834;51.100;6.886;2022-08-07T12:31:16;101921.00;;;28.20
60966;BMP180;46834;51.100;6.886;2022-08-07T12:33:45;101909.00;;;28.30
60966;BMP180;46834;51.100;6.886;2022-08-07T12:36:14;101923.00;;;28.30
60966;BMP180;46834;51.100;6.886;2022-08-07T12:38:42;101915.00;;;28.30
60966;BMP180;46834;51.100;6.886;2022-08-07T12:41:11;101909.00;;;28.40
60966;BMP180;46834;51.100;6.886;2022-08-07T12:43:39;101909.00;;;28.40
60966;BMP180;46834;51.100;6.886;2022-08-07T12:46:30;101907.00;;;28.40
60966;BMP180;46834;51.100;6.886;2022-08-07T12:51:45;101904.00;;;28.40
60966;BMP180;46834;51.100;6.886;2022-08-07T12:54:24;101903.00;;;28.40
60966;BMP180;46834;51.100;6.886;2022-08-07T12:56:54;101908.00;;;28.50
60966;BMP180;46834;51.100;6.886;2022-08-07T12:59:30;101913.00;;;28.50
60966;BMP180;46834;51.100;6.886;2022-08-07T13:02:41;101903.00;;;28.50
60966;BMP180;46834;51.100;6.886;2022-08-07T13:05:35;101898.00;;;28.50
60966;BMP180;46834;51.100;6.886;2022-08-07T13:17:05;101891.00;;;28.50
60966;BMP180;46834;51.100;6.886;2022-08-07T13:20:01;101890.00;;;28.60
60966;BMP180;46834;51.100;6.886;2022-08-07T13:22:48;101878.00;;;28.60
60966;BMP180;46834;51.100;6.886;2022-08-07T13:25:45;101891.00;;;28.60
60966;BMP180;46834;51.100;6.886;2022-08-07T13:28:36;101880.00;;;28.60
60966;BMP180;46834;51.100;6.886;2022-08-07T13:31:13;101878.00;;;28.70
60966;BMP180;46834;51.100;6.886;2022-08-07T13:34:02;101874.00;;;28.70
60966;BMP180;46834;51.100;6.886;2022-08-07T13:36:39;101871.00;;;28.80
60966;BMP180;46834;51.100;6.886;2022-08-07T13:39:24;101870.00;;;28.80
60966;BMP180;46834;51.100;6.886;2022-08-07T13:41:53;101865.00;;;28.90
60966;BMP180;46834;51.100;6.886;2022-08-07T13:44:23;101869.00;;;28.90
60966;BMP180;46834;51.100;6.886;2022-08-07T13:46:55;101859.00;;;28.90
60966;BMP180;46834;51.100;6.886;2022-08-07T13:49:25;101856.00;;;28.90
60966;BMP180;46834;51.100;6.886;2022-08-07T13:51:53;101860.00;;;29.00
60966;BMP180;46834;51.100;6.886;2022-08-07T13:54:28;101855.00;;;29.00
60966;BMP180;46834;51.100;6.886;2022-08-07T13:56:56;101861.00;;;29.00
60966;BMP180;46834;51.100;6.886;2022-08-07T13:59:28;101848.00;;;29.00
60966;BMP180;46834;51.100;6.886;2022-08-07T14:02:05;101847.00;;;29.00
60966;BMP180;46834;51.100;6.886;2022-08-07T14:04:51;101844.00;;;29.10
60966;BMP180;46834;51.100;6.886;2022-08-07T14:07:22;101823.00;;;29.10
60966;BMP180;46834;51.100;6.886;2022-08-07T14:09:54;101838.00;;;29.10
60966;BMP180;46834;51.100;6.886;2022-08-07T14:12:49;101835.00;;;29.00
60966;BMP180;46834;51.100;6.886;2022-08-07T14:15:34;101834.00;;;29.10
60966;BMP180;46834;51.100;6.886;2022-08-07T14:21:10;101839.00;;;29.10
60966;BMP180;46834;51.100;6.886;2022-08-07T14:23:43;101838.00;;;29.20
60966;BMP180;46834;51.100;6.886;2022-08-07T14:26:16;101830.00;;;29.20
60966;BMP180;46834;51.100;6.886;2022-08-07T14:28:44;101829.00;;;29.20
60966;BMP180;46834;51.100;6.886;2022-08-07T14:31:12;101828.00;;;29.30
60966;BMP180;46834;51.100;6.886;2022-08-07T14:33:40;101839.00;;;29.30
60966;BMP180;46834;51.100;6.886;2022-08-07T14:36:08;101827.00;;;29.30
60966;BMP180;46834;51.100;6.886;2022-08-07T14:38:35;101820.00;;;29.30
60966;BMP180;46834;51.100;6.886;2022-08-07T14:41:12;101825.00;;;29.30
60966;BMP180;46834;51.100;6.886;2022-08-07T14:43:45;101828.00;;;29.30
60966;BMP180;46834;51.100;6.886;2022-08-07T14:46:17;101820.00;;;29.30
60966;BMP180;46834;51.100;6.886;2022-08-07T14:48:46;101809.00;;;29.30
60966;BMP180;46834;51.100;6.886;2022-08-07T14:51:20;101808.00;;;29.30
60966;BMP180;46834;51.100;6.886;2022-08-07T14:53:49;101824.00;;;29.30
60966;BMP180;46834;51.100;6.886;2022-08-07T14:56:20;101821.00;;;29.30
60966;BMP180;46834;51.100;6.886;2022-08-07T14:58:55;101817.00;;;29.30
60966;BMP180;46834;51.100;6.886;2022-08-07T15:01:30;101816.00;;;29.40
60966;BMP180;46834;51.100;6.886;2022-08-07T15:04:02;101813.00;;;29.40
60966;BMP180;46834;51.100;6.886;2022-08-07T15:06:41;101816.00;;;29.40
60966;BMP180;46834;51.100;6.886;2022-08-07T15:09:14;101813.00;;;29.40
60966;BMP180;46834;51.100;6.886;2022-08-07T15:11:53;101811.00;;;29.40
60966;BMP180;46834;51.100;6.886;2022-08-07T15:14:23;101810.00;;;29.40
60966;BMP180;46834;51.100;6.886;2022-08-07T15:17:00;101814.00;;;29.40
60966;BMP180;46834;51.100;6.886;2022-08-07T15:19:34;101809.00;;;29.40
60966;BMP180;46834;51.100;6.886;2022-08-07T15:22:03;101813.00;;;29.50
60966;BMP180;46834;51.100;6.886;2022-08-07T15:24:35;101820.00;;;29.50
60966;BMP180;46834;51.100;6.886;2022-08-07T15:27:11;101812.00;;;29.50
60966;BMP180;46834;51.100;6.886;2022-08-07T15:29:45;101811.00;;;29.50
60966;BMP180;46834;51.100;6.886;2022-08-07T15:32:13;101807.00;;;29.50
60966;BMP180;46834;51.100;6.886;2022-08-07T15:34:46;101803.00;;;29.50
60966;BMP180;46834;51.100;6.886;2022-08-07T15:37:16;101814.00;;;29.50
60966;BMP180;46834;51.100;6.886;2022-08-07T15:39:53;101806.00;;;29.50
60966;BMP180;46834;51.100;6.886;2022-08-07T15:45:29;101802.00;;;29.50
60966;BMP180;46834;51.100;6.886;2022-08-07T15:48:11;101799.00;;;29.50
60966;BMP180;46834;51.100;6.886;2022-08-07T15:50:45;101799.00;;;29.50
60966;BMP180;46834;51.100;6.886;2022-08-07T15:53:22;101801.00;;;29.50
60966;BMP180;46834;51.100;6.886;2022-08-07T15:56:01;101801.00;;;29.50
60966;BMP180;46834;51.100;6.886;2022-08-07T16:01:39;101789.00;;;29.50
60966;BMP180;46834;51.100;6.886;2022-08-07T16:04:11;101786.00;;;29.60
60966;BMP180;46834;51.100;6.886;2022-08-07T16:06:48;101787.00;;;29.60
60966;BMP180;46834;51.100;6.886;2022-08-07T16:09:49;101789.00;;;29.50
60966;BMP180;46834;51.100;6.886;2022-08-07T16:15:47;101782.00;;;29.50
60966;BMP180;46834;51.100;6.886;2022-08-07T16:21:07;101782.00;;;29.50
60966;BMP180;46834;51.100;6.886;2022-08-07T16:23:59;101785.00;;;29.50
60966;BMP180;46834;51.100;6.886;2022-08-07T16:30:03;101776.00;;;29.40